sensor_id;sensor_type;location;lat;lon;timestamp;temperature;humidity
4425;DHT22;2225;53.568;13.266;2022-09-03T00:02:04;17.60;86.90
4425;DHT22;2225;53.568;13.266;2022-09-03T00:04:59;17.60;86.60
4425;DHT22;2225;53.568;13.266;2022-09-03T00:07:35;17.60;86.70
4425;DHT22;2225;53.568;13.266;2022-09-03T00:10:17;17.60;86.50
4425;DHT22;2225;53.568;13.266;2022-09-03T00:12:50;17.60;86.70
4425;DHT22;2225;53.568;13.266;2022-09-03T00:15:20;17.60;86.80
4425;DHT22;2225;53.568;13.266;2022-09-03T00:17:58;17.60;86.70
4425;DHT22;2225;53.568;13.266;2022-09-03T00:20:40;17.60;86.70
4425;DHT22;2225;53.568;13.266;2022-09-03T00:23:15;17.60;86.50
4425;DHT22;2225;53.568;13.266;2022-09-03T00:25:50;17.60;86.60
4425;DHT22;2225;53.568;13.266;2022-09-03T00:28:27;17.60;86.50
4425;DHT22;2225;53.568;13.266;2022-09-03T00:31:08;17.60;86.40
4425;DHT22;2225;53.568;13.266;2022-09-03T00:33:39;17.60;86.60
4425;DHT22;2225;53.568;13.266;2022-09-03T00:36:27;17.50;86.40
4425;DHT22;2225;53.568;13.266;2022-09-03T00:39:00;17.50;86.60
4425;DHT22;2225;53.568;13.266;2022-09-03T00:41:35;17.50;86.40
4425;DHT22;2225;53.568;13.266;2022-09-03T00:47:34;17.50;86.60
4425;DHT22;2225;53.568;13.266;2022-09-03T00:50:30;17.50;86.40
4425;DHT22;2225;53.568;13.266;2022-09-03T00:53:22;17.50;86.30
4425;DHT22;2225;53.568;13.266;2022-09-03T01:04:41;17.50;86.00
4425;DHT22;2225;53.568;13.266;2022-09-03T01:15:40;17.60;85.80
4425;DHT22;2225;53.568;13.266;2022-09-03T01:18:52;17.60;85.70
4425;DHT22;2225;53.568;13.266;2022-09-03T01:30:42;17.60;85.40
4425;DHT22;2225;53.568;13.266;2022-09-03T01:33:43;17.60;85.40
4425;DHT22;2225;53.568;13.266;2022-09-03T01:39:48;17.60;85.30
4425;DHT22;2225;53.568;13.266;2022-09-03T01:43:00;17.60;85.20
4425;DHT22;2225;53.568;13.266;2022-09-03T01:45:55;17.60;85.10
4425;DHT22;2225;53.568;13.266;2022-09-03T01:49:19;17.60;85.00
4425;DHT22;2225;53.568;13.266;2022-09-03T01:52:22;17.60;84.60
4425;DHT22;2225;53.568;13.266;2022-09-03T01:57:59;17.60;84.40
4425;DHT22;2225;53.568;13.266;2022-09-03T02:00:55;17.60;84.30
4425;DHT22;2225;53.568;13.266;2022-09-03T02:03:34;17.50;84.20
4425;DHT22;2225;53.568;13.266;2022-09-03T02:06:08;17.50;84.30
4425;DHT22;2225;53.568;13.266;2022-09-03T02:08:37;17.50;84.20
4425;DHT22;2225;53.568;13.266;2022-09-03T02:11:06;17.40;84.00
4425;DHT22;2225;53.568;13.266;2022-09-03T02:13:40;17.40;84.00
4425;DHT22;2225;53.568;13.266;2022-09-03T02:16:17;17.40;84.10
4425;DHT22;2225;53.568;13.266;2022-09-03T02:18:49;17.40;84.00
4425;DHT22;2225;53.568;13.266;2022-09-03T02:21:20;17.40;84.00
4425;DHT22;2225;53.568;13.266;2022-09-03T02:23:48;17.40;83.80
4425;DHT22;2225;53.568;13.266;2022-09-03T02:26:19;17.40;83.70
4425;DHT22;2225;53.568;13.266;2022-09-03T02:28:48;17.40;83.70
4425;DHT22;2225;53.568;13.266;2022-09-03T02:31:16;17.40;83.50
4425;DHT22;2225;53.568;13.266;2022-09-03T02:33:45;17.40;83.40
4425;DHT22;2225;53.568;13.266;2022-09-03T02:36:16;17.40;83.30
4425;DHT22;2225;53.568;13.266;2022-09-03T02:38:46;17.40;83.20
4425;DHT22;2225;53.568;13.266;2022-09-03T02:41:13;17.40;83.20
4425;DHT22;2225;53.568;13.266;2022-09-03T02:43:48;17.40;83.20
4425;DHT22;2225;53.568;13.266;2022-09-03T02:46:20;17.40;83.30
4425;DHT22;2225;53.568;13.266;2022-09-03T02:48:49;17.30;83.30
4425;DHT22;2225;53.568;13.266;2022-09-03T02:51:15;17.30;83.10
4425;DHT22;2225;53.568;13.266;2022-09-03T02:53:43;17.30;83.20
4425;DHT22;2225;53.568;13.266;2022-09-03T02:56:10;17.20;83.10
4425;DHT22;2225;53.568;13.266;2022-09-03T02:58:37;17.20;83.30
4425;DHT22;2225;53.568;13.266;2022-09-03T03:01:04;17.20;83.30
4425;DHT22;2225;53.568;13.266;2022-09-03T03:03:32;17.10;83.50
4425;DHT22;2225;53.568;13.266;2022-09-03T03:06:03;17.10;83.50
4425;DHT22;2225;53.568;13.266;2022-09-03T03:08:31;17.00;83.50
4425;DHT22;2225;53.568;13.266;2022-09-03T03:11:00;16.90;83.60
4425;DHT22;2225;53.568;13.266;2022-09-03T03:13:28;16.90;83.70
4425;DHT22;2225;53.568;13.266;2022-09-03T03:16:01;16.90;84.00
4425;DHT22;2225;53.568;13.266;2022-09-03T03:18:29;16.80;84.20
4425;DHT22;2225;53.568;13.266;2022-09-03T03:20:56;16.70;84.40
4425;DHT22;2225;53.568;13.266;2022-09-03T03:23:23;16.60;84.50
4425;DHT22;2225;53.568;13.266;2022-09-03T03:25:50;16.60;84.70
4425;DHT22;2225;53.568;13.266;2022-09-03T03:28:17;16.50;84.90
4425;DHT22;2225;53.568;13.266;2022-09-03T03:30:46;16.40;85.00
4425;DHT22;2225;53.568;13.266;2022-09-03T03:33:14;16.40;85.10
4425;DHT22;2225;53.568;13.266;2022-09-03T03:35:41;16.30;85.10
4425;DHT22;2225;53.568;13.266;2022-09-03T03:38:08;16.30;85.30
4425;DHT22;2225;53.568;13.266;2022-09-03T03:40:37;16.20;85.10
4425;DHT22;2225;53.568;13.266;2022-09-03T03:43:04;16.20;85.60
4425;DHT22;2225;53.568;13.266;2022-09-03T03:45:31;16.10;85.70
4425;DHT22;2225;53.568;13.266;2022-09-03T03:47:58;16.10;85.80
4425;DHT22;2225;53.568;13.266;2022-09-03T03:50:25;16.00;86.10
4425;DHT22;2225;53.568;13.266;2022-09-03T03:52:53;16.00;86.30
4425;DHT22;2225;53.568;13.266;2022-09-03T03:55:20;15.90;86.40
4425;DHT22;2225;53.568;13.266;2022-09-03T03:57:48;15.80;86.70
4425;DHT22;2225;53.568;13.266;2022-09-03T04:00:15;15.80;87.00
4425;DHT22;2225;53.568;13.266;2022-09-03T04:02:42;15.80;87.20
4425;DHT22;2225;53.568;13.266;2022-09-03T04:05:09;15.70;87.10
4425;DHT22;2225;53.568;13.266;2022-09-03T04:07:37;15.70;87.00
4425;DHT22;2225;53.568;13.266;2022-09-03T04:10:04;15.70;87.20
4425;DHT22;2225;53.568;13.266;2022-09-03T04:12:31;15.70;87.40
4425;DHT22;2225;53.568;13.266;2022-09-03T04:14:58;15.60;87.70
4425;DHT22;2225;53.568;13.266;2022-09-03T04:17:26;15.60;87.80
4425;DHT22;2225;53.568;13.266;2022-09-03T04:19:53;15.60;87.80
4425;DHT22;2225;53.568;13.266;2022-09-03T04:22:20;15.50;87.70
4425;DHT22;2225;53.568;13.266;2022-09-03T04:24:47;15.50;87.70
4425;DHT22;2225;53.568;13.266;2022-09-03T04:27:14;15.50;88.00
4425;DHT22;2225;53.568;13.266;2022-09-03T04:29:41;15.50;88.00
4425;DHT22;2225;53.568;13.266;2022-09-03T04:32:08;15.50;88.00
4425;DHT22;2225;53.568;13.266;2022-09-03T04:34:54;15.50;87.90
4425;DHT22;2225;53.568;13.266;2022-09-03T04:37:21;15.50;87.80
4425;DHT22;2225;53.568;13.266;2022-09-03T04:39:48;15.50;87.90
4425;DHT22;2225;53.568;13.266;2022-09-03T04:42:15;15.50;88.10
4425;DHT22;2225;53.568;13.266;2022-09-03T04:44:42;15.50;88.30
4425;DHT22;2225;53.568;13.266;2022-09-03T04:47:09;15.50;88.50
4425;DHT22;2225;53.568;13.266;2022-09-03T04:49:36;15.40;88.40
4425;DHT22;2225;53.568;13.266;2022-09-03T04:52:03;15.40;88.60
4425;DHT22;2225;53.568;13.266;2022-09-03T04:54:30;15.50;88.70
4425;DHT22;2225;53.568;13.266;2022-09-03T04:56:57;15.40;88.80
4425;DHT22;2225;53.568;13.266;2022-09-03T04:59:24;15.40;88.80
4425;DHT22;2225;53.568;13.266;2022-09-03T05:01:50;15.40;89.50
4425;DHT22;2225;53.568;13.266;2022-09-03T05:04:18;15.40;88.90
4425;DHT22;2225;53.568;13.266;2022-09-03T05:06:45;15.40;89.00
4425;DHT22;2225;53.568;13.266;2022-09-03T05:09:12;15.40;89.20
4425;DHT22;2225;53.568;13.266;2022-09-03T05:11:39;15.40;89.20
4425;DHT22;2225;53.568;13.266;2022-09-03T05:14:06;15.40;89.00
4425;DHT22;2225;53.568;13.266;2022-09-03T05:16:37;15.50;89.40
4425;DHT22;2225;53.568;13.266;2022-09-03T05:19:04;15.50;89.30
4425;DHT22;2225;53.568;13.266;2022-09-03T05:21:31;15.40;89.50
4425;DHT22;2225;53.568;13.266;2022-09-03T05:23:59;15.50;89.60
4425;DHT22;2225;53.568;13.266;2022-09-03T05:26:29;15.50;89.80
4425;DHT22;2225;53.568;13.266;2022-09-03T05:29:00;15.50;89.80
4425;DHT22;2225;53.568;13.266;2022-09-03T05:31:37;15.50;90.00
4425;DHT22;2225;53.568;13.266;2022-09-03T05:34:05;15.50;89.80
4425;DHT22;2225;53.568;13.266;2022-09-03T05:36:34;15.60;89.90
4425;DHT22;2225;53.568;13.266;2022-09-03T05:39:03;15.60;90.00
4425;DHT22;2225;53.568;13.266;2022-09-03T05:41:31;15.60;90.00
4425;DHT22;2225;53.568;13.266;2022-09-03T05:43:59;15.60;89.90
4425;DHT22;2225;53.568;13.266;2022-09-03T05:46:31;15.70;90.00
4425;DHT22;2225;53.568;13.266;2022-09-03T05:49:04;15.70;90.00
4425;DHT22;2225;53.568;13.266;2022-09-03T05:51:34;15.80;90.10
4425;DHT22;2225;53.568;13.266;2022-09-03T05:54:02;15.80;90.10
4425;DHT22;2225;53.568;13.266;2022-09-03T05:56:31;15.80;90.20
4425;DHT22;2225;53.568;13.266;2022-09-03T05:59:01;15.90;90.10
4425;DHT22;2225;53.568;13.266;2022-09-03T06:01:39;15.90;90.20
4425;DHT22;2225;53.568;13.266;2022-09-03T06:04:16;16.00;90.20
4425;DHT22;2225;53.568;13.266;2022-09-03T06:06:44;16.10;90.30
4425;DHT22;2225;53.568;13.266;2022-09-03T06:09:14;16.10;90.40
4425;DHT22;2225;53.568;13.266;2022-09-03T06:11:44;16.20;90.40
4425;DHT22;2225;53.568;13.266;2022-09-03T06:14:12;16.30;90.30
4425;DHT22;2225;53.568;13.266;2022-09-03T06:16:42;16.30;90.30
4425;DHT22;2225;53.568;13.266;2022-09-03T06:19:11;16.40;90.30
4425;DHT22;2225;53.568;13.266;2022-09-03T06:21:41;16.50;90.20
4425;DHT22;2225;53.568;13.266;2022-09-03T06:24:10;16.60;90.10
4425;DHT22;2225;53.568;13.266;2022-09-03T06:26:40;16.70;90.00
4425;DHT22;2225;53.568;13.266;2022-09-03T06:29:08;16.80;89.90
4425;DHT22;2225;53.568;13.266;2022-09-03T06:31:36;16.90;89.30
4425;DHT22;2225;53.568;13.266;2022-09-03T06:34:03;16.90;89.00
4425;DHT22;2225;53.568;13.266;2022-09-03T06:36:32;17.00;88.70
4425;DHT22;2225;53.568;13.266;2022-09-03T06:38:59;17.10;88.50
4425;DHT22;2225;53.568;13.266;2022-09-03T06:41:28;17.20;88.40
4425;DHT22;2225;53.568;13.266;2022-09-03T06:44:03;17.40;88.40
4425;DHT22;2225;53.568;13.266;2022-09-03T06:46:34;17.50;87.50
4425;DHT22;2225;53.568;13.266;2022-09-03T06:49:02;17.60;86.80
4425;DHT22;2225;53.568;13.266;2022-09-03T06:51:30;17.60;86.10
4425;DHT22;2225;53.568;13.266;2022-09-03T06:54:04;17.80;86.70
4425;DHT22;2225;53.568;13.266;2022-09-03T06:56:35;17.90;86.30
4425;DHT22;2225;53.568;13.266;2022-09-03T06:59:08;18.00;85.70
4425;DHT22;2225;53.568;13.266;2022-09-03T07:01:37;18.10;84.30
4425;DHT22;2225;53.568;13.266;2022-09-03T07:04:10;18.20;84.30
4425;DHT22;2225;53.568;13.266;2022-09-03T07:06:39;18.20;83.50
4425;DHT22;2225;53.568;13.266;2022-09-03T07:09:09;18.40;83.60
4425;DHT22;2225;53.568;13.266;2022-09-03T07:11:37;18.40;83.10
4425;DHT22;2225;53.568;13.266;2022-09-03T07:14:13;18.60;82.70
4425;DHT22;2225;53.568;13.266;2022-09-03T07:16:40;18.60;82.50
4425;DHT22;2225;53.568;13.266;2022-09-03T07:19:08;18.80;81.30
4425;DHT22;2225;53.568;13.266;2022-09-03T07:21:36;18.80;81.90
4425;DHT22;2225;53.568;13.266;2022-09-03T07:24:04;19.00;80.80
4425;DHT22;2225;53.568;13.266;2022-09-03T07:26:34;19.00;80.00
4425;DHT22;2225;53.568;13.266;2022-09-03T07:29:06;19.20;80.50
4425;DHT22;2225;53.568;13.266;2022-09-03T07:31:38;19.20;80.50
4425;DHT22;2225;53.568;13.266;2022-09-03T07:34:08;19.30;79.50
4425;DHT22;2225;53.568;13.266;2022-09-03T07:36:42;19.50;80.00
4425;DHT22;2225;53.568;13.266;2022-09-03T07:39:14;19.60;78.00
4425;DHT22;2225;53.568;13.266;2022-09-03T07:41:43;19.60;76.80
4425;DHT22;2225;53.568;13.266;2022-09-03T07:44:15;19.70;77.30
4425;DHT22;2225;53.568;13.266;2022-09-03T07:46:45;19.80;76.30
4425;DHT22;2225;53.568;13.266;2022-09-03T07:49:13;19.80;77.20
4425;DHT22;2225;53.568;13.266;2022-09-03T07:51:40;19.90;75.40
4425;DHT22;2225;53.568;13.266;2022-09-03T07:54:09;20.00;76.10
4425;DHT22;2225;53.568;13.266;2022-09-03T07:56:38;20.00;76.00
4425;DHT22;2225;53.568;13.266;2022-09-03T07:59:06;20.10;74.10
4425;DHT22;2225;53.568;13.266;2022-09-03T08:01:35;20.10;74.30
4425;DHT22;2225;53.568;13.266;2022-09-03T08:04:04;20.20;74.90
4425;DHT22;2225;53.568;13.266;2022-09-03T08:06:35;20.20;73.90
4425;DHT22;2225;53.568;13.266;2022-09-03T08:09:06;20.20;74.50
4425;DHT22;2225;53.568;13.266;2022-09-03T08:11:36;20.30;74.70
4425;DHT22;2225;53.568;13.266;2022-09-03T08:14:07;20.40;75.30
4425;DHT22;2225;53.568;13.266;2022-09-03T08:16:46;20.50;73.80
4425;DHT22;2225;53.568;13.266;2022-09-03T08:19:14;20.60;73.60
4425;DHT22;2225;53.568;13.266;2022-09-03T08:21:42;20.70;72.80
4425;DHT22;2225;53.568;13.266;2022-09-03T08:24:11;20.70;72.20
4425;DHT22;2225;53.568;13.266;2022-09-03T08:26:41;20.80;73.10
4425;DHT22;2225;53.568;13.266;2022-09-03T08:29:16;20.90;71.70
4425;DHT22;2225;53.568;13.266;2022-09-03T08:31:43;21.00;70.50
4425;DHT22;2225;53.568;13.266;2022-09-03T08:34:11;21.10;70.40
4425;DHT22;2225;53.568;13.266;2022-09-03T08:36:40;21.10;69.20
4425;DHT22;2225;53.568;13.266;2022-09-03T08:39:08;21.00;68.30
4425;DHT22;2225;53.568;13.266;2022-09-03T08:44:27;21.10;68.30
4425;DHT22;2225;53.568;13.266;2022-09-03T08:47:16;21.10;67.90
4425;DHT22;2225;53.568;13.266;2022-09-03T08:50:14;21.10;68.10
4425;DHT22;2225;53.568;13.266;2022-09-03T08:52:51;21.20;68.80
4425;DHT22;2225;53.568;13.266;2022-09-03T08:56:13;21.30;68.50
4425;DHT22;2225;53.568;13.266;2022-09-03T08:58:40;21.40;68.50
4425;DHT22;2225;53.568;13.266;2022-09-03T09:07:10;21.70;66.80
4425;DHT22;2225;53.568;13.266;2022-09-03T09:13:12;21.80;65.80
4425;DHT22;2225;53.568;13.266;2022-09-03T09:21:15;22.00;65.70
4425;DHT22;2225;53.568;13.266;2022-09-03T09:23:50;22.00;65.50
4425;DHT22;2225;53.568;13.266;2022-09-03T09:26:20;22.10;65.50
4425;DHT22;2225;53.568;13.266;2022-09-03T09:28:56;22.20;66.00
4425;DHT22;2225;53.568;13.266;2022-09-03T09:31:27;22.30;64.90
4425;DHT22;2225;53.568;13.266;2022-09-03T09:34:03;22.40;65.30
4425;DHT22;2225;53.568;13.266;2022-09-03T09:36:55;22.50;65.30
4425;DHT22;2225;53.568;13.266;2022-09-03T09:39:22;22.60;64.80
4425;DHT22;2225;53.568;13.266;2022-09-03T09:42:16;22.60;63.40
4425;DHT22;2225;53.568;13.266;2022-09-03T09:44:47;22.70;63.10
4425;DHT22;2225;53.568;13.266;2022-09-03T09:50:00;22.80;60.20
4425;DHT22;2225;53.568;13.266;2022-09-03T09:52:30;22.80;61.00
4425;DHT22;2225;53.568;13.266;2022-09-03T09:55:13;22.80;61.90
4425;DHT22;2225;53.568;13.266;2022-09-03T09:57:43;22.90;60.70
4425;DHT22;2225;53.568;13.266;2022-09-03T10:00:13;22.90;59.60
4425;DHT22;2225;53.568;13.266;2022-09-03T10:02:50;22.90;59.50
4425;DHT22;2225;53.568;13.266;2022-09-03T10:05:26;23.00;59.80
4425;DHT22;2225;53.568;13.266;2022-09-03T10:07:55;23.10;61.20
4425;DHT22;2225;53.568;13.266;2022-09-03T10:10:22;23.10;60.70
4425;DHT22;2225;53.568;13.266;2022-09-03T10:12:57;23.10;60.00
4425;DHT22;2225;53.568;13.266;2022-09-03T10:15:41;23.20;59.30
4425;DHT22;2225;53.568;13.266;2022-09-03T10:18:25;23.20;58.90
4425;DHT22;2225;53.568;13.266;2022-09-03T10:23:53;23.30;56.40
4425;DHT22;2225;53.568;13.266;2022-09-03T10:26:24;23.30;56.90
4425;DHT22;2225;53.568;13.266;2022-09-03T10:29:01;23.30;58.80
4425;DHT22;2225;53.568;13.266;2022-09-03T10:34:47;23.50;57.80
4425;DHT22;2225;53.568;13.266;2022-09-03T10:37:28;23.60;57.70
4425;DHT22;2225;53.568;13.266;2022-09-03T10:46:24;23.80;56.40
4425;DHT22;2225;53.568;13.266;2022-09-03T10:49:03;23.90;56.40
4425;DHT22;2225;53.568;13.266;2022-09-03T10:51:41;23.90;56.00
4425;DHT22;2225;53.568;13.266;2022-09-03T11:01:17;24.00;55.20
4425;DHT22;2225;53.568;13.266;2022-09-03T11:04:07;24.00;55.40
4425;DHT22;2225;53.568;13.266;2022-09-03T11:06:50;24.00;55.30
4425;DHT22;2225;53.568;13.266;2022-09-03T11:09:23;24.00;55.50
4425;DHT22;2225;53.568;13.266;2022-09-03T11:11:58;24.10;55.20
4425;DHT22;2225;53.568;13.266;2022-09-03T11:14:37;24.10;55.90
4425;DHT22;2225;53.568;13.266;2022-09-03T11:17:13;24.10;55.80
4425;DHT22;2225;53.568;13.266;2022-09-03T11:19:47;24.20;55.60
4425;DHT22;2225;53.568;13.266;2022-09-03T11:22:19;24.40;55.60
4425;DHT22;2225;53.568;13.266;2022-09-03T11:24:58;24.50;54.80
4425;DHT22;2225;53.568;13.266;2022-09-03T11:27:42;24.60;54.90
4425;DHT22;2225;53.568;13.266;2022-09-03T11:30:47;24.70;53.70
4425;DHT22;2225;53.568;13.266;2022-09-03T11:33:26;24.80;52.70
4425;DHT22;2225;53.568;13.266;2022-09-03T11:35:59;24.90;52.30
4425;DHT22;2225;53.568;13.266;2022-09-03T11:38:29;24.90;51.40
4425;DHT22;2225;53.568;13.266;2022-09-03T11:41:27;25.00;52.50
4425;DHT22;2225;53.568;13.266;2022-09-03T11:44:18;25.00;50.80
4425;DHT22;2225;53.568;13.266;2022-09-03T11:46:57;25.10;50.70
4425;DHT22;2225;53.568;13.266;2022-09-03T11:49:28;25.20;52.20
4425;DHT22;2225;53.568;13.266;2022-09-03T11:52:01;25.10;51.20
4425;DHT22;2225;53.568;13.266;2022-09-03T11:54:42;25.10;52.10
4425;DHT22;2225;53.568;13.266;2022-09-03T11:57:20;25.20;51.90
4425;DHT22;2225;53.568;13.266;2022-09-03T11:59:49;25.10;51.60
4425;DHT22;2225;53.568;13.266;2022-09-03T12:02:24;25.20;51.10
4425;DHT22;2225;53.568;13.266;2022-09-03T12:05:20;25.20;50.90
4425;DHT22;2225;53.568;13.266;2022-09-03T12:13:27;25.20;50.00
4425;DHT22;2225;53.568;13.266;2022-09-03T12:19:00;25.10;50.60
4425;DHT22;2225;53.568;13.266;2022-09-03T12:21:39;25.10;50.70
4425;DHT22;2225;53.568;13.266;2022-09-03T12:24:10;25.10;49.50
4425;DHT22;2225;53.568;13.266;2022-09-03T12:26:41;25.10;48.60
4425;DHT22;2225;53.568;13.266;2022-09-03T12:29:26;25.10;49.00
4425;DHT22;2225;53.568;13.266;2022-09-03T12:32:08;25.10;48.70
4425;DHT22;2225;53.568;13.266;2022-09-03T12:34:37;25.20;48.30
4425;DHT22;2225;53.568;13.266;2022-09-03T12:37:17;25.20;49.20
4425;DHT22;2225;53.568;13.266;2022-09-03T12:40:19;25.20;49.50
4425;DHT22;2225;53.568;13.266;2022-09-03T12:42:49;25.20;49.00
4425;DHT22;2225;53.568;13.266;2022-09-03T12:45:22;25.20;48.30
4425;DHT22;2225;53.568;13.266;2022-09-03T12:47:52;25.30;48.60
4425;DHT22;2225;53.568;13.266;2022-09-03T12:50:21;25.40;47.70
4425;DHT22;2225;53.568;13.266;2022-09-03T12:52:50;25.40;48.70
4425;DHT22;2225;53.568;13.266;2022-09-03T12:55:49;25.50;48.40
4425;DHT22;2225;53.568;13.266;2022-09-03T12:58:25;25.50;48.70
4425;DHT22;2225;53.568;13.266;2022-09-03T13:01:34;25.60;48.20
4425;DHT22;2225;53.568;13.266;2022-09-03T13:04:16;25.60;47.80
4425;DHT22;2225;53.568;13.266;2022-09-03T13:09:23;25.50;47.10
4425;DHT22;2225;53.568;13.266;2022-09-03T13:11:52;25.50;48.10
4425;DHT22;2225;53.568;13.266;2022-09-03T13:14:21;25.50;48.10
4425;DHT22;2225;53.568;13.266;2022-09-03T13:23:16;25.50;47.40
4425;DHT22;2225;53.568;13.266;2022-09-03T13:26:11;25.50;47.80
4425;DHT22;2225;53.568;13.266;2022-09-03T13:29:00;25.50;48.50
4425;DHT22;2225;53.568;13.266;2022-09-03T13:31:57;25.50;48.00
4425;DHT22;2225;53.568;13.266;2022-09-03T13:34:37;25.50;48.00
4425;DHT22;2225;53.568;13.266;2022-09-03T13:37:22;25.50;48.60
4425;DHT22;2225;53.568;13.266;2022-09-03T13:46:24;25.50;48.10
4425;DHT22;2225;53.568;13.266;2022-09-03T13:49:06;25.40;47.70
4425;DHT22;2225;53.568;13.266;2022-09-03T13:52:03;25.50;48.30
4425;DHT22;2225;53.568;13.266;2022-09-03T13:54:38;25.50;48.40
4425;DHT22;2225;53.568;13.266;2022-09-03T13:57:23;25.50;48.60
4425;DHT22;2225;53.568;13.266;2022-09-03T14:08:34;25.50;49.40
4425;DHT22;2225;53.568;13.266;2022-09-03T14:14:32;25.50;47.90
4425;DHT22;2225;53.568;13.266;2022-09-03T14:17:11;25.50;49.20
4425;DHT22;2225;53.568;13.266;2022-09-03T14:20:02;25.50;48.10
4425;DHT22;2225;53.568;13.266;2022-09-03T14:22:44;25.50;48.40
4425;DHT22;2225;53.568;13.266;2022-09-03T14:25:32;25.50;49.00
4425;DHT22;2225;53.568;13.266;2022-09-03T14:28:14;25.50;48.90
4425;DHT22;2225;53.568;13.266;2022-09-03T14:31:26;25.50;47.60
4425;DHT22;2225;53.568;13.266;2022-09-03T14:34:48;25.50;47.80
4425;DHT22;2225;53.568;13.266;2022-09-03T14:40:38;25.50;48.00
4425;DHT22;2225;53.568;13.266;2022-09-03T14:46:47;25.50;49.20
4425;DHT22;2225;53.568;13.266;2022-09-03T14:49:45;25.50;48.20
4425;DHT22;2225;53.568;13.266;2022-09-03T14:52:52;25.50;47.50
4425;DHT22;2225;53.568;13.266;2022-09-03T15:01:28;25.40;47.90
4425;DHT22;2225;53.568;13.266;2022-09-03T15:07:07;25.50;49.00
4425;DHT22;2225;53.568;13.266;2022-09-03T15:10:17;25.50;49.00
4425;DHT22;2225;53.568;13.266;2022-09-03T15:13:18;25.50;48.70
4425;DHT22;2225;53.568;13.266;2022-09-03T15:16:00;25.50;49.40
4425;DHT22;2225;53.568;13.266;2022-09-03T15:25:24;25.40;48.90
4425;DHT22;2225;53.568;13.266;2022-09-03T15:28:33;25.30;49.10
4425;DHT22;2225;53.568;13.266;2022-09-03T15:31:34;25.20;49.40
4425;DHT22;2225;53.568;13.266;2022-09-03T15:37:18;25.10;49.70
4425;DHT22;2225;53.568;13.266;2022-09-03T15:39:59;25.00;50.00
4425;DHT22;2225;53.568;13.266;2022-09-03T15:42:29;25.00;50.00
4425;DHT22;2225;53.568;13.266;2022-09-03T15:45:03;25.00;49.90
4425;DHT22;2225;53.568;13.266;2022-09-03T15:47:50;25.00;48.90
4425;DHT22;2225;53.568;13.266;2022-09-03T15:50:47;25.10;49.10
4425;DHT22;2225;53.568;13.266;2022-09-03T15:53:44;25.10;48.70
4425;DHT22;2225;53.568;13.266;2022-09-03T16:04:35;25.00;48.50
4425;DHT22;2225;53.568;13.266;2022-09-03T16:13:07;24.90;49.40
4425;DHT22;2225;53.568;13.266;2022-09-03T16:15:48;24.90;49.30
4425;DHT22;2225;53.568;13.266;2022-09-03T16:21:11;24.80;49.60
4425;DHT22;2225;53.568;13.266;2022-09-03T16:24:17;24.80;49.70
4425;DHT22;2225;53.568;13.266;2022-09-03T16:27:06;24.80;49.70
4425;DHT22;2225;53.568;13.266;2022-09-03T16:29:39;24.80;50.20
4425;DHT22;2225;53.568;13.266;2022-09-03T16:35:20;24.60;50.00
4425;DHT22;2225;53.568;13.266;2022-09-03T16:38:16;24.60;50.30
4425;DHT22;2225;53.568;13.266;2022-09-03T16:44:14;24.50;50.60
4425;DHT22;2225;53.568;13.266;2022-09-03T16:49:46;24.40;51.00
4425;DHT22;2225;53.568;13.266;2022-09-03T16:52:38;24.40;51.20
4425;DHT22;2225;53.568;13.266;2022-09-03T16:55:47;24.30;51.60
4425;DHT22;2225;53.568;13.266;2022-09-03T16:58:34;24.20;51.90
4425;DHT22;2225;53.568;13.266;2022-09-03T17:01:41;24.20;51.70
4425;DHT22;2225;53.568;13.266;2022-09-03T17:13:40;23.90;53.40
4425;DHT22;2225;53.568;13.266;2022-09-03T17:16:26;23.80;53.90
4425;DHT22;2225;53.568;13.266;2022-09-03T17:22:16;23.60;54.50
4425;DHT22;2225;53.568;13.266;2022-09-03T17:24:53;23.60;54.40
4425;DHT22;2225;53.568;13.266;2022-09-03T17:30:42;23.50;54.70
4425;DHT22;2225;53.568;13.266;2022-09-03T17:36:26;23.40;54.70
4425;DHT22;2225;53.568;13.266;2022-09-03T17:42:03;23.30;54.80
4425;DHT22;2225;53.568;13.266;2022-09-03T17:45:09;23.20;54.90
4425;DHT22;2225;53.568;13.266;2022-09-03T17:48:02;23.10;55.20
4425;DHT22;2225;53.568;13.266;2022-09-03T17:50:54;23.10;55.40
4425;DHT22;2225;53.568;13.266;2022-09-03T17:53:38;23.00;56.10
4425;DHT22;2225;53.568;13.266;2022-09-03T17:56:29;23.00;55.70
4425;DHT22;2225;53.568;13.266;2022-09-03T17:59:07;22.90;55.60
4425;DHT22;2225;53.568;13.266;2022-09-03T18:01:43;22.80;55.70
4425;DHT22;2225;53.568;13.266;2022-09-03T18:04:33;22.80;55.80
4425;DHT22;2225;53.568;13.266;2022-09-03T18:10:38;22.70;56.00
4425;DHT22;2225;53.568;13.266;2022-09-03T18:16:26;22.60;56.10
4425;DHT22;2225;53.568;13.266;2022-09-03T18:22:47;22.50;56.20
4425;DHT22;2225;53.568;13.266;2022-09-03T18:25:36;22.50;56.10
4425;DHT22;2225;53.568;13.266;2022-09-03T18:28:34;22.40;56.20
4425;DHT22;2225;53.568;13.266;2022-09-03T18:31:23;22.40;56.70
4425;DHT22;2225;53.568;13.266;2022-09-03T18:34:09;22.40;57.00
4425;DHT22;2225;53.568;13.266;2022-09-03T18:36:58;22.30;57.90
4425;DHT22;2225;53.568;13.266;2022-09-03T18:39:44;22.20;58.50
4425;DHT22;2225;53.568;13.266;2022-09-03T18:45:34;22.10;60.30
4425;DHT22;2225;53.568;13.266;2022-09-03T18:48:55;22.00;60.40
4425;DHT22;2225;53.568;13.266;2022-09-03T18:55:30;21.90;61.30
4425;DHT22;2225;53.568;13.266;2022-09-03T19:01:39;21.80;61.50
4425;DHT22;2225;53.568;13.266;2022-09-03T19:04:48;21.80;62.30
4425;DHT22;2225;53.568;13.266;2022-09-03T19:10:54;21.70;63.00
4425;DHT22;2225;53.568;13.266;2022-09-03T19:13:45;21.60;63.60
4425;DHT22;2225;53.568;13.266;2022-09-03T19:20:17;21.50;64.20
4425;DHT22;2225;53.568;13.266;2022-09-03T19:23:09;21.50;64.40
4425;DHT22;2225;53.568;13.266;2022-09-03T19:26:04;21.40;64.80
4425;DHT22;2225;53.568;13.266;2022-09-03T19:29:01;21.40;65.00
4425;DHT22;2225;53.568;13.266;2022-09-03T19:31:55;21.40;66.10
4425;DHT22;2225;53.568;13.266;2022-09-03T19:38:30;21.40;66.80
4425;DHT22;2225;53.568;13.266;2022-09-03T19:41:36;21.30;66.90
4425;DHT22;2225;53.568;13.266;2022-09-03T19:44:44;21.30;67.10
4425;DHT22;2225;53.568;13.266;2022-09-03T19:48:17;21.30;67.60
4425;DHT22;2225;53.568;13.266;2022-09-03T19:51:16;21.30;67.90
4425;DHT22;2225;53.568;13.266;2022-09-03T19:54:06;21.20;68.80
4425;DHT22;2225;53.568;13.266;2022-09-03T19:56:55;21.20;68.60
4425;DHT22;2225;53.568;13.266;2022-09-03T19:59:44;21.10;69.10
4425;DHT22;2225;53.568;13.266;2022-09-03T20:02:38;21.10;69.80
4425;DHT22;2225;53.568;13.266;2022-09-03T20:05:24;21.10;69.60
4425;DHT22;2225;53.568;13.266;2022-09-03T20:08:12;21.10;70.80
4425;DHT22;2225;53.568;13.266;2022-09-03T20:11:02;21.10;71.00
4425;DHT22;2225;53.568;13.266;2022-09-03T20:13:30;21.10;71.40
4425;DHT22;2225;53.568;13.266;2022-09-03T20:16:48;21.00;70.90
4425;DHT22;2225;53.568;13.266;2022-09-03T20:19:41;21.00;72.30
4425;DHT22;2225;53.568;13.266;2022-09-03T20:28:06;21.00;71.20
4425;DHT22;2225;53.568;13.266;2022-09-03T20:31:00;20.90;70.70
4425;DHT22;2225;53.568;13.266;2022-09-03T20:33:46;20.90;71.00
4425;DHT22;2225;53.568;13.266;2022-09-03T20:36:45;20.90;70.80